< Cyclone 202205 2022 Season Cyclone 202208 >
Cyclone 202207 (Ruby)
General InformationTrack Information on Google MapsDetailed Wind InformationList of All Images || ResourceGoogle EarthGE AnimationAtom FeedGeoJSON
Detalied Best Track (Time Zone = UTC)
Year Month Day Hour Lat. Long. Pressure (hPa) Wind (kt) Class Image Chart
2021 12 9 00 -8.9 155.0 1007 20 2 Image --
2021 12 9 06 -9.4 155.1 1007 20 2 Image --
2021 12 9 12 -9.5 155.2 1006 20 2 Image --
2021 12 9 18 -9.6 155.3 1006 20 2 Image --
2021 12 10 00 -9.7 155.5 1006 20 2 Image --
2021 12 10 06 -10.0 155.6 1003 20 2 Image --
2021 12 10 12 -10.2 155.6 1002 25 2 Image --
2021 12 10 18 -10.3 155.7 1000 25 2 Image --
2021 12 11 00 -10.4 156.1 998 35 3 Image --
2021 12 11 06 -10.7 156.5 999 30 2 Image --
2021 12 11 12 -11.5 156.6 1001 30 2 Image --
2021 12 11 18 -12.5 156.9 1000 30 2 Image --
2021 12 12 00 -13.5 157.0 994 40 3 Image --
2021 12 12 06 -14.6 157.7 990 45 3 Image --
2021 12 12 12 -15.4 158.0 988 50 4 Image --
2021 12 12 18 -16.3 158.9 983 55 4 Image --
2021 12 13 00 -17.3 159.7 980 60 4 Image --
2021 12 13 06 -18.2 161.2 977 60 4 Image --
2021 12 13 12 -19.1 162.2 981 55 4 Image --
2021 12 13 18 -19.9 163.8 980 55 4 Image --
2021 12 14 00 -21.1 165.4 982 55 4 Image --
2021 12 14 06 -22.1 167.3 981 55 4 Image --
2021 12 14 12 -23.2 169.1 987 50 4 Image --
2021 12 14 18 -24.2 170.6 987 45 3 Image --
2021 12 15 00 -25.1 172.5 987 45 3 Image --
< Cyclone 202205 2022 Season Cyclone 202208 >

Help